Terminal Aerodrome Forecast
Issued by NWS

Home | Current Version | Previous Version | Text Only | Print | Product List | Glossary On
Versions: 1 2 3 4 5 6 7 8 9 10 11 12 13 14 15 16 17 18 19 20
040
FTUS43 KJKL 240831 AAA
TAFSME
TAF AMD
KSME 240831Z 2409/2506 00000KT 1SM BR SCT001 BKN003
     FM241400 00000KT 3SM -SHRA BR SCT008 OVC040
     FM241600 VRB03KT 3SM SHRA VCTS SCT008CB OVC035
     FM242300 26006KT P6SM VCSH SCT008 OVC020=

USA.gov is the U.S. government's official web portal to all federal, state and local government web resources and services.